Time;durP1;ratioP1;P1;durP2;ratioP2;P2;SDS_P1;SDS_P2;PMS_P1;PMS_P2;Temp;Humidity;BMP_temperature;BMP_pressure;BME280_temperature;BME280_humidity;BME280_pressure;Samples;Min_cycle;Max_cycle;Signal;HPM_P1;HPM_P2
2022/08/07 03:01:23;;;;;;;1.38;0.65;;;29.10;30.20;;;;;;5422166;23;45551;-79
2022/08/07 03:03:49;;;;;;;1.58;0.60;;;29.10;30.30;;;;;;4880407;29;45122;-80
2022/08/07 03:06:15;;;;;;;1.20;0.70;;;29.10;30.30;;;;;;4870222;29;46732;-79
2022/08/07 03:08:40;;;;;;;3.90;0.77;;;29.10;30.30;;;;;;4905776;28;45027;-80
2022/08/07 03:11:06;;;;;;;0.50;0.50;;;29.10;30.30;;;;;;4888995;28;44805;-80
2022/08/07 03:13:31;;;;;;;1.45;0.65;;;29.10;30.30;;;;;;4884203;29;44894;-80
2022/08/07 03:15:57;;;;;;;1.05;0.60;;;29.10;30.30;;;;;;4864535;29;47019;-81
2022/08/07 03:18:22;;;;;;;0.68;0.40;;;29.10;30.30;;;;;;4887055;29;44682;-80
2022/08/07 03:20:48;;;;;;;1.20;0.50;;;29.10;30.20;;;;;;4889812;29;45480;-81
2022/08/07 03:23:14;;;;;;;0.77;0.50;;;29.10;30.30;;;;;;4869859;29;45246;-82
2022/08/07 03:25:40;;;;;;;0.55;0.47;;;29.10;30.20;;;;;;4872347;29;47632;-79
2022/08/07 03:28:08;;;;;;;1.08;0.50;;;29.00;30.20;;;;;;4903179;29;45114;-81
2022/08/07 03:30:34;;;;;;;0.98;0.55;;;29.00;30.20;;;;;;4859020;29;45474;-79
2022/08/07 03:32:59;;;;;;;0.70;0.47;;;29.00;30.20;;;;;;4868606;29;45055;-80
2022/08/07 03:35:26;;;;;;;0.43;0.43;;;29.00;30.20;;;;;;4882523;29;46477;-80
2022/08/07 03:38:00;;;;;;;0.30;0.30;;;29.00;30.20;;;;;;4885437;28;45228;-79
2022/08/07 03:40:26;;;;;;;0.82;0.60;;;29.00;30.20;;;;;;4857852;29;45683;-80
2022/08/07 03:42:51;;;;;;;0.90;0.60;;;29.00;30.20;;;;;;4886101;28;45263;-80
2022/08/07 03:45:18;;;;;;;2.03;0.80;;;29.00;30.30;;;;;;4882372;29;45666;-81
2022/08/07 03:47:44;;;;;;;2.20;0.70;;;29.00;30.30;;;;;;4869246;29;44706;-81
2022/08/07 03:50:10;;;;;;;2.88;0.75;;;28.90;30.20;;;;;;4886177;29;45235;-80
2022/08/07 03:52:36;;;;;;;2.40;0.85;;;28.90;30.30;;;;;;4851574;29;45706;-81
2022/08/07 03:55:01;;;;;;;1.35;1.00;;;28.90;30.30;;;;;;4870090;29;47899;-80
2022/08/07 03:57:28;;;;;;;2.33;0.80;;;28.90;30.30;;;;;;4885893;29;45222;-79
2022/08/07 03:59:54;;;;;;;0.95;0.60;;;28.90;30.30;;;;;;4884593;29;45063;-82
2022/08/07 04:02:19;;;;;;;0.63;0.50;;;28.90;30.30;;;;;;4860656;29;44745;-81
2022/08/07 04:04:45;;;;;;;1.05;0.60;;;28.90;30.30;;;;;;4857878;29;45395;-81
2022/08/07 04:07:10;;;;;;;2.15;0.70;;;28.90;30.50;;;;;;4888626;29;45381;-81
2022/08/07 04:09:36;;;;;;;1.63;0.60;;;28.80;30.30;;;;;;4873002;29;45105;-81
2022/08/07 04:12:02;;;;;;;1.55;0.73;;;28.80;30.40;;;;;;4889081;29;44803;-81
2022/08/07 04:14:27;;;;;;;0.47;0.35;;;28.80;30.40;;;;;;4859420;29;47073;-80
2022/08/07 04:16:53;;;;;;;1.00;0.52;;;28.80;30.40;;;;;;4874382;28;45155;-83
2022/08/07 04:19:19;;;;;;;2.95;0.60;;;28.80;30.40;;;;;;4874251;29;45251;-83
2022/08/07 04:21:44;;;;;;;0.90;0.55;;;28.80;30.40;;;;;;4859960;29;44676;-83
2022/08/07 04:24:11;;;;;;;1.10;0.63;;;28.80;30.40;;;;;;4872962;29;47054;-81
2022/08/07 04:26:40;;;;;;;1.80;0.50;;;28.80;30.50;;;;;;4874310;29;45257;-82
2022/08/07 04:29:06;;;;;;;1.08;0.47;;;28.80;30.50;;;;;;4873743;29;44700;-81
2022/08/07 04:31:32;;;;;;;2.75;0.70;;;28.80;30.50;;;;;;4856929;29;45145;-83
2022/08/07 04:33:57;;;;;;;0.47;0.45;;;29.00;30.20;;;;;;4858413;29;46028;-81
2022/08/07 04:36:23;;;;;;;1.10;0.50;;;28.90;30.30;;;;;;4871856;29;45132;-82
2022/08/07 04:38:49;;;;;;;0.60;0.50;;;28.80;30.50;;;;;;4889558;29;45327;-81
2022/08/07 04:41:14;;;;;;;0.70;0.45;;;28.80;30.60;;;;;;4871181;29;45451;-82
2022/08/07 04:43:42;;;;;;;1.27;0.60;;;28.70;30.60;;;;;;4864022;29;47134;-82
2022/08/07 04:46:13;;;;;;;1.38;0.20;;;28.70;30.60;;;;;;4890535;29;45119;-81
2022/08/07 04:48:45;;;;;;;1.02;0.70;;;28.70;30.60;;;;;;4859845;29;45205;-81
2022/08/07 04:51:35;;;;;;;0.82;0.40;;;28.70;30.60;;;;;;4888249;28;45151;-82
2022/08/07 04:54:22;;;;;;;1.00;0.60;;;28.70;30.60;;;;;;4888898;29;47528;-82
2022/08/07 04:56:59;;;;;;;1.83;0.55;;;29.00;30.40;;;;;;4901936;28;45213;-82
2022/08/07 04:59:38;;;;;;;1.27;0.57;;;29.10;30.30;;;;;;4901356;29;45255;-83
2022/08/07 05:02:05;;;;;;;1.30;0.50;;;29.20;30.20;;;;;;4871952;29;45177;-81
2022/08/07 05:04:31;;;;;;;1.00;0.50;;;28.90;30.60;;;;;;4890820;29;47462;-80
2022/08/07 05:07:15;;;;;;;;;;;28.80;30.70;;;;;;4908844;28;45304;-82
2022/08/07 05:09:50;;;;;;;;;;;28.70;30.80;;;;;;4905058;28;45177;-81
2022/08/07 05:12:16;;;;;;;;;;;28.60;31.00;;;;;;4890169;29;45190;-81
2022/08/07 05:14:42;;;;;;;;;;;28.60;31.00;;;;;;4893035;29;47401;-81
2022/08/07 05:17:09;;;;;;;;;;;28.60;30.90;;;;;;4871789;29;45245;-81
2022/08/07 05:19:36;;;;;;;;;;;28.60;31.10;;;;;;4883147;28;44847;-82
2022/08/07 05:22:02;;;;;;;;;;;28.60;31.10;;;;;;4897477;28;45638;-80
2022/08/07 05:24:28;;;;;;;;;;;28.60;31.10;;;;;;4871750;28;47043;-82
2022/08/07 05:26:54;;;;;;;;;;;29.10;30.60;;;;;;4899386;29;45252;-80
2022/08/07 05:29:20;;;;;;;;;;;30.30;29.20;;;;;;4885398;29;45696;-81
2022/08/07 05:31:45;;;;;;;;;;;31.10;28.30;;;;;;4898885;28;45227;-79
2022/08/07 05:34:12;;;;;;;;;;;31.60;27.70;;;;;;4868467;29;47240;-82
2022/08/07 05:36:37;;;;;;;;;;;31.80;27.50;;;;;;4872465;29;45282;-81
2022/08/07 05:39:03;;;;;;;;;;;31.30;27.70;;;;;;4886784;29;44807;-80
2022/08/07 05:41:28;;;;;;;;;;;30.50;28.50;;;;;;4886258;29;45202;-82
2022/08/07 05:43:54;;;;;;;;;;;30.00;29.10;;;;;;4887040;29;48083;-80
2022/08/07 05:46:20;;;;;;;;;;;29.60;29.60;;;;;;4904472;29;45052;-82
2022/08/07 05:48:45;;;;;;;;;;;29.40;29.90;;;;;;4889012;29;45557;-82
2022/08/07 05:51:11;;;;;;;;;;;29.20;30.00;;;;;;4888171;29;45656;-83
2022/08/07 05:53:36;;;;;;;;;;;29.10;30.20;;;;;;4887986;28;47348;-82
2022/08/07 05:56:02;;;;;;;;;;;29.00;30.40;;;;;;4903687;29;45085;-81
2022/08/07 05:58:28;;;;;;;;;;;29.00;30.50;;;;;;4887743;29;45468;-81
2022/08/07 06:00:53;;;;;;;;;;;28.90;30.50;;;;;;4888170;29;45312;-81
2022/08/07 06:03:19;;;;;;;;;;;29.00;30.70;;;;;;4889032;29;47101;-81
2022/08/07 06:05:45;;;;;;;;;;;28.90;30.80;;;;;;4886801;29;45467;-83
2022/08/07 06:08:10;;;;;;;;;;;28.90;30.80;;;;;;4892650;28;44864;-82
2022/08/07 06:10:36;;;;;;;;;;;28.80;30.90;;;;;;4904341;29;45287;-82
2022/08/07 06:13:01;;;;;;;;;;;28.90;31.00;;;;;;4872152;28;46880;-80
2022/08/07 06:15:27;;;;;;;;;;;28.80;30.80;;;;;;4870959;29;45749;-82
2022/08/07 06:17:53;;;;;;;;;;;28.90;31.00;;;;;;4887281;29;44704;-81
2022/08/07 06:20:18;;;;;;;;;;;28.90;31.10;;;;;;4903673;28;45347;-82
2022/08/07 06:22:44;;;;;;;;;;;29.00;31.00;;;;;;4903280;29;46687;-82
2022/08/07 06:25:10;;;;;;;;;;;29.00;30.20;;;;;;4872161;29;45157;-82
2022/08/07 06:27:35;;;;;;;;;;;29.00;30.40;;;;;;4903623;29;45101;-83
2022/08/07 06:30:01;;;;;;;;;;;29.10;30.60;;;;;;4871298;28;45248;-82
2022/08/07 06:32:26;;;;;;;;;;;29.20;30.50;;;;;;4872375;29;47045;-82
2022/08/07 06:34:51;;;;;;;;;;;29.20;30.40;;;;;;4888146;29;45489;-81
2022/08/07 06:37:17;;;;;;;;;;;29.30;30.40;;;;;;4888517;29;45651;-81
2022/08/07 06:39:42;;;;;;;;;;;29.30;30.40;;;;;;4889060;29;45001;-82
2022/08/07 06:42:23;;;;;;;;;;;29.30;30.40;;;;;;4872897;29;46811;-82
2022/08/07 06:44:48;;;;;;;;;;;29.30;30.40;;;;;;4887750;29;45333;-80
2022/08/07 06:47:14;;;;;;;;;;;29.30;30.50;;;;;;4888902;29;45258;-82
2022/08/07 06:49:39;;;;;;;;;;;29.30;30.50;;;;;;4878975;29;45434;-81
2022/08/07 06:52:05;;;;;;;;;;;29.30;30.40;;;;;;4895621;29;47162;-82
2022/08/07 06:54:30;;;;;;;;;;;29.40;30.50;;;;;;4897623;28;45113;-81
2022/08/07 06:56:56;;;;;;;;;;;29.40;30.50;;;;;;4910328;28;44640;-79
2022/08/07 06:59:25;;;;;;;;;;;29.40;30.90;;;;;;4897763;29;44892;-81
2022/08/07 07:01:51;;;;;;;;;;;29.40;30.50;;;;;;4887778;29;46659;-81
2022/08/07 07:04:16;;;;;;;;;;;29.40;30.40;;;;;;4886020;28;45398;-81
2022/08/07 07:06:43;;;;;;;;;;;29.50;30.30;;;;;;4902124;29;45530;-81
2022/08/07 07:09:19;;;;;;;;;;;29.50;30.50;;;;;;4887051;29;45231;-81
2022/08/07 07:11:48;;;;;;;;;;;29.50;30.50;;;;;;4883069;29;45603;-80
2022/08/07 07:14:14;;;;;;;;;;;29.50;30.30;;;;;;4906831;28;45288;-80
2022/08/07 07:16:39;;;;;;;;;;;29.50;30.20;;;;;;4870185;29;45369;-81
2022/08/07 07:19:05;;;;;;;;;;;29.50;30.10;;;;;;4867949;29;45201;-79
2022/08/07 07:21:31;;;;;;;;;;;29.50;30.30;;;;;;4900415;29;47071;-80
2022/08/07 07:23:57;;;;;;;;;;;29.50;30.50;;;;;;4881491;29;45223;-81
2022/08/07 07:26:23;;;;;;;;;;;29.50;30.40;;;;;;4883725;28;45281;-81
2022/08/07 07:28:56;;;;;;;;;;;29.50;30.40;;;;;;4888439;29;45411;-82
2022/08/07 07:31:24;;;;;;;;;;;29.50;30.10;;;;;;4873896;29;47126;-82
2022/08/07 07:33:51;;;;;;;;;;;29.30;29.60;;;;;;4890609;29;44829;-82
2022/08/07 07:36:16;;;;;;;;;;;29.10;29.40;;;;;;4876833;29;45295;-83
2022/08/07 07:38:42;;;;;;;;;;;29.10;29.60;;;;;;4892303;29;45479;-82
2022/08/07 07:41:07;;;;;;;;;;;29.20;29.70;;;;;;4891902;29;45431;-80
2022/08/07 07:43:33;;;;;;;;;;;29.30;29.70;;;;;;4891846;29;45133;-82
2022/08/07 07:45:59;;;;;;;;;;;29.30;29.70;;;;;;4891915;29;44678;-81
2022/08/07 07:48:24;;;;;;;;;;;29.40;29.70;;;;;;4892160;29;45319;-82
2022/08/07 07:50:50;;;;;;;;;;;29.40;29.90;;;;;;4896741;29;46873;-82
2022/08/07 07:53:16;;;;;;;;;;;29.50;29.80;;;;;;4875295;29;44774;-82
2022/08/07 07:55:42;;;;;;;;;;;29.50;29.80;;;;;;4889855;29;45330;-82
2022/08/07 07:58:07;;;;;;;;;;;29.50;29.80;;;;;;4908312;29;44784;-82
2022/08/07 08:00:33;;;;;;;;;;;29.60;29.90;;;;;;4890517;29;46970;-83
2022/08/07 08:03:00;;;;;;;;;;;29.60;29.90;;;;;;4898324;28;45333;-84
2022/08/07 08:05:26;;;;;;;;;;;29.60;29.90;;;;;;4914581;28;45287;-84
2022/08/07 08:07:51;;;;;;;;;;;29.70;30.00;;;;;;4892331;29;44671;-81
2022/08/07 08:10:17;;;;;;;;;;;29.60;30.00;;;;;;4888036;29;45564;-82
2022/08/07 08:12:42;;;;;;;;;;;29.70;29.90;;;;;;4904779;29;45163;-82
2022/08/07 08:15:08;;;;;;;;;;;29.70;29.90;;;;;;4872588;29;45036;-81
2022/08/07 08:17:34;;;;;;;;;;;29.80;30.00;;;;;;4887943;29;45426;-82
2022/08/07 08:20:01;;;;;;;;;;;29.80;30.00;;;;;;4874290;29;46872;-81
2022/08/07 08:27:55;;;;;;;;;;;29.80;30.00;;;;;;4900546;29;45367;-81
2022/08/07 08:30:21;;;;;;;;;;;29.90;30.00;;;;;;4887323;29;45532;-82
2022/08/07 08:32:51;;;;;;;;;;;29.90;30.00;;;;;;4912199;28;45133;-82
2022/08/07 08:35:24;;;;;;;;;;;29.90;30.00;;;;;;4887921;29;44982;-81
2022/08/07 08:37:50;;;;;;;;;;;29.90;30.00;;;;;;4909522;28;44751;-81
2022/08/07 08:40:23;;;;;;;;;;;29.90;29.90;;;;;;4897364;29;47309;-82
2022/08/07 08:42:51;;;;;;;;;;;30.00;30.00;;;;;;4872174;28;45613;-82
2022/08/07 08:45:52;;;;;;;;;;;30.00;30.00;;;;;;4891898;29;45174;-82
2022/08/07 08:48:26;;;;;;;;;;;30.00;30.00;;;;;;4880524;29;45679;-83
2022/08/07 08:51:10;;;;;;;;;;;30.00;30.00;;;;;;4885585;28;46838;-84
2022/08/07 08:53:48;;;;;;;;;;;30.00;30.00;;;;;;4903208;28;45550;-81
2022/08/07 08:56:14;;;;;;;;;;;30.00;30.00;;;;;;4905505;28;45380;-84
2022/08/07 08:58:46;;;;;;;;;;;30.00;30.10;;;;;;4881839;29;45040;-84
2022/08/07 09:01:30;;;;;;;;;;;30.10;30.20;;;;;;4904032;28;45631;-85
2022/08/07 09:04:14;;;;;;;;;;;30.10;30.50;;;;;;4906578;29;45281;-84
2022/08/07 09:06:56;;;;;;;;;;;30.10;30.00;;;;;;4908295;29;45313;-81
2022/08/07 09:09:40;;;;;;;;;;;30.10;30.00;;;;;;4886869;29;45237;-82
2022/08/07 09:12:12;;;;;;;;;;;30.20;30.00;;;;;;4872115;29;47315;-83
2022/08/07 09:14:40;;;;;;;;;;;30.20;30.00;;;;;;4901193;29;45263;-81
2022/08/07 09:17:18;;;;;;;;;;;30.20;30.00;;;;;;4903038;28;44808;-82
2022/08/07 09:20:02;;;;;;;;;;;30.20;30.00;;;;;;4903826;28;44697;-82
2022/08/07 09:22:32;;;;;;;;;;;30.20;30.00;;;;;;4885026;29;45912;-81
2022/08/07 09:25:10;;;;;;;;;;;30.20;30.10;;;;;;4882843;29;45030;-82
2022/08/07 09:27:54;;;;;;;;;;;30.20;30.00;;;;;;4901234;29;44671;-82
2022/08/07 09:30:20;;;;;;;;;;;30.20;30.10;;;;;;4880698;29;44904;-81
2022/08/07 09:32:53;;;;;;;;;;;30.30;30.10;;;;;;4870710;29;47295;-81
2022/08/07 09:35:20;;;;;;;;;;;30.30;30.10;;;;;;4887313;29;44843;-82
2022/08/07 09:38:06;;;;;;;;;;;30.30;30.00;;;;;;4920226;28;44746;-81
2022/08/07 09:40:46;;;;;;;;;;;30.30;30.10;;;;;;4887781;29;45158;-82
2022/08/07 09:43:27;;;;;;;;;;;30.30;30.10;;;;;;4887162;29;47293;-82
2022/08/07 09:46:01;;;;;;;;;;;30.30;30.10;;;;;;4873988;29;45905;-83
2022/08/07 09:48:48;;;;;;;;;;;30.30;30.10;;;;;;4922288;28;45430;-82
2022/08/07 09:51:19;;;;;;;;;;;30.30;30.00;;;;;;4871373;28;45388;-82
2022/08/07 09:53:45;;;;;;;;;;;30.30;30.00;;;;;;4872694;28;47399;-82
2022/08/07 09:56:40;;;;;;;;;;;30.40;30.10;;;;;;4887724;29;45323;-84
2022/08/07 09:59:13;;;;;;;;;;;30.40;30.10;;;;;;4888219;29;44699;-81
2022/08/07 10:01:57;;;;;;;;;;;30.40;30.20;;;;;;4884561;29;44848;-82
2022/08/07 10:04:38;;;;;;;;;;;30.40;30.20;;;;;;4901144;28;47088;-82
2022/08/07 10:07:24;;;;;;;;;;;30.40;30.30;;;;;;4882993;28;45571;-81
2022/08/07 10:09:49;;;;;;;;;;;30.50;30.30;;;;;;4863224;28;45473;-81
2022/08/07 10:12:38;;;;;;;;;;;30.50;30.30;;;;;;4886108;29;44810;-81
2022/08/07 10:15:04;;;;;;;;;;;30.50;30.40;;;;;;4880898;29;46696;-81
2022/08/07 10:17:48;;;;;;;;;;;30.50;30.40;;;;;;4901677;28;45253;-82
2022/08/07 10:20:14;;;;;;;;;;;30.50;30.40;;;;;;4887262;28;44650;-80
2022/08/07 10:22:58;;;;;;;;;;;30.50;30.40;;;;;;4906426;28;45557;-82
2022/08/07 10:25:48;;;;;;;;;;;30.50;30.50;;;;;;4907957;28;46688;-81
2022/08/07 10:28:17;;;;;;;;;;;30.50;30.50;;;;;;4898355;28;45282;-82
2022/08/07 10:30:52;;;;;;;;;;;30.50;30.60;;;;;;4871637;29;45077;-81
2022/08/07 10:33:41;;;;;;;;;;;30.50;30.60;;;;;;4888566;29;45381;-81
2022/08/07 10:36:23;;;;;;;;;;;30.60;30.70;;;;;;4886735;29;46321;-82
2022/08/07 10:38:50;;;;;;;;;;;30.60;31.40;;;;;;4891407;29;45193;-82
2022/08/07 10:41:22;;;;;;;;;;;30.60;30.70;;;;;;4879749;29;45140;-82
2022/08/07 10:44:07;;;;;;;;;;;30.60;30.70;;;;;;4908250;28;45267;-82
2022/08/07 10:46:35;;;;;;;;;;;30.60;30.70;;;;;;4905542;28;47052;-80
2022/08/07 10:49:01;;;;;;;;;;;30.60;30.70;;;;;;4891959;29;45037;-81
2022/08/07 10:51:33;;;;;;;;;;;30.60;30.80;;;;;;4905347;29;45134;-83
2022/08/07 10:54:02;;;;;;;;;;;30.60;30.80;;;;;;4920463;28;45321;-81
2022/08/07 10:56:35;;;;;;;;;;;30.70;30.90;;;;;;4920620;28;46186;-81
2022/08/07 10:59:09;;;;;;;;;;;30.60;30.80;;;;;;4888677;29;44981;-82
2022/08/07 11:01:40;;;;;;;;;;;30.70;30.80;;;;;;4910041;28;45270;-81
2022/08/07 11:04:11;;;;;;;;;;;30.60;30.80;;;;;;4904367;28;45202;-81
2022/08/07 11:06:44;;;;;;;;;;;30.60;30.90;;;;;;4885414;29;45268;-82
2022/08/07 11:09:23;;;;;;;;;;;30.70;30.90;;;;;;4891381;29;45309;-82
2022/08/07 11:12:10;;;;;;;;;;;30.70;30.90;;;;;;4872070;29;44659;-82
2022/08/07 11:14:40;;;;;;;;;;;30.70;30.90;;;;;;4886920;29;45202;-82
2022/08/07 11:17:25;;;;;;;;;;;30.70;30.90;;;;;;4887340;29;47495;-82
2022/08/07 11:20:11;;;;;;;;;;;30.70;30.90;;;;;;4891071;29;45472;-81
2022/08/07 11:22:40;;;;;;;;;;;30.70;30.90;;;;;;4894692;28;45373;-81
2022/08/07 11:25:16;;;;;;;;;;;30.70;30.90;;;;;;4905220;29;45520;-81
